Flight Track Log - Related Links

Times and Time Zones

All times are in EDT time to prevent confusion due to time zone crossing. See the SWA37 flight status page for this flight to view local times or setup timezone preferences in your user account.

Time Position Orientation Groundspeed Altitude Reporting Facility
EDT Latitude Longitude Course Direction KTS MPH feet Rate Location/Type
Sun 04:39:59 PM 32.8333 -96.8333 140° Southeast 147 169 1,300  Level Dallas / Fort Worth TRACON
Sun 04:40:47 PM 32.8000 -96.8000 140° Southeast 213 245 2,900 2,294 Climbing Dallas / Fort Worth TRACON
Sun 04:41:41 PM 32.7500 -96.7667 151° Southeast 263 303 5,200 2,322 Climbing Dallas / Fort Worth TRACON
Sun 04:44:06 PM 32.5753 -96.8389 199° South 286 329 10,600 2,166 Climbing Fort Worth Center
Sun 04:45:06 PM 32.4836 -96.8717 197° South 325 374 12,600 2,050 Climbing Fort Worth Center
Sun 04:46:06 PM 32.3939 -96.9017 196° South 359 413 14,700 2,250 Climbing Fort Worth Center
Sun 04:47:06 PM 32.2814 -96.9342 194° South 376 433 17,100 2,400 Climbing Fort Worth Center
Sun 04:48:06 PM 32.1769 -96.9225 175° South 376 433 19,500 1,900 Climbing Fort Worth Center
Sun 04:49:06 PM 32.0661 -96.9011 171° South 385 443 20,900 1,800 Climbing Fort Worth Center
Sun 04:50:06 PM 31.9556 -96.8819 172° South 399 459 23,100 2,100 Climbing Fort Worth Center
Sun 04:51:06 PM 31.8425 -96.8631 172° South 410 472 25,100 1,660 Climbing Fort Worth Center
Sun 04:51:40 PM 31.7842 -96.8511 170° South 406 467 25,700 1,250 Climbing Houston Center
Sun 04:52:42 PM 31.6658 -96.8297 171° South 421 484 27,100 1,258 Climbing Houston Center
Sun 04:53:44 PM 31.5453 -96.8122 173° South 431 496 28,300 919 Climbing Houston Center
Sun 04:54:46 PM 31.4217 -96.7919 172° South 440 506 29,000 339 Climbing Houston Center
Sun 04:55:48 PM 31.2983 -96.7728 172° South 443 510 29,000  Level Houston Center
Sun 04:56:50 PM 31.1714 -96.7519 172° South 451 519 29,000  Level Houston Center
Sun 04:57:52 PM 31.0444 -96.7322 172° South 453 521 29,000 -48 Level Houston Center
Sun 04:58:54 PM 30.8950 -96.7086 172° South 454 522 28,900 -1,104 Descending Houston Center
Sun 04:59:57 PM 30.7725 -96.6883 172° South 440 506 26,700 -2,256 Descending Houston Center
Sun 05:00:59 PM 30.6550 -96.6700 172° South 424 488 24,200 -2,371 Descending Houston Center
Sun 05:02:01 PM 30.5531 -96.6236 159° South 405 466 21,800 -2,419 Descending Houston Center
Sun 05:03:03 PM 30.4775 -96.5322 134° Southeast 386 444 19,200 -2,500 Descending Houston Center
Sun 05:03:37 PM 30.4297 -96.4758 134° Southeast 386 444 17,800 -2,308 Descending Houston Center
Sun 05:04:08 PM 30.3947 -96.4336 134° Southeast 381 438 16,700 -2,233 Descending Houston Center
Sun 05:05:03 PM 30.3269 -96.3517 134° Southeast 365 420 14,600 -2,164 Descending Houston Center
Sun 05:06:10 PM 30.2525 -96.2633 134° Southeast 347 399 12,300 -1,756 Descending Houston Center
Sun 05:07:06 PM 30.1839 -96.1961 140° Southeast 339 390 11,000 -683 Descending Houston Center
Sun 05:08:13 PM 30.1075 -96.1544 155° Southeast 328 377 10,900  Descending Houston Center
Sun 05:09:09 PM 30.0167 -96.1064 155° Southeast 320 368 11,000 52 Climbing Houston Center
Sun 05:10:09 PM 29.9353 -96.0625 155° Southeast 321 369 11,000  Level Houston Center
Sun 05:11:11 PM 29.8519 -96.0192 156° South 321 369 11,000  Level Houston Center
Sun 05:12:22 PM 29.7614 -95.9686 154° Southeast 316 364 11,000  Level Houston Center
Sun 05:13:13 PM 29.7064 -95.9156 140° Southeast 283 326 11,000 -375 Level Houston Center
Sun 05:14:14 PM 29.6561 -95.8442 129° Southeast 301 346 10,300 -1,024 Descending Houston Center
Sun 05:15:16 PM 29.6478 -95.7514 96° East 284 327 8,900 -1,561 Descending Houston Center
Sun 05:16:17 PM 29.6506 -95.6622 88° East 290 334 7,100 -1,721 Descending Houston Center
Sun 05:17:18 PM 29.6714 -95.5686 76° East 280 322 5,400 -1,070 Descending Houston Center
Sun 05:18:26 PM 29.6889 -95.4847 76° East 231 266 4,800 -744 Descending Houston Center
Sun 05:19:27 PM 29.7044 -95.4228 74° East 189 217 3,800 -682 Descending Houston Center
Sun 05:20:38 PM 29.7206 -95.3572 74° East 203 234 3,300 -1,377 Descending Houston Center
Sun 05:21:29 PM 29.6850 -95.3264 143° Southeast 134 154 1,000 -1,607 Descending Houston Center
Sun 05:22:30 PM 29.6592 -95.2958 134° Southeast 135 155 300 -689 Descending Houston Center
Sun 05:24:00 PM 29.6454 -95.2789 115° Southeast  Level Estimated
Sun 05:31:00 PM 29.6454 -95.2789 115° Southeast  Level Estimated

Login

Don't have an account? Register now (free) for customized features, flight alerts, and more!